Terminal Aerodrome Forecast
Issued by NWS

Current Version | Previous Version | Text Only | Print | Product List | Glossary Off
Versions: 1 2 3 4 5 6 7 8 9 10 11 12 13 14 15 16 17 18 19 20 21

000
FTUS41 KPBZ 202300
TAFMGW
TAF
KMGW 202320Z 2100/2124 20005KT P6SM -SHRA OVC050
     FM210400 21004KT 6SM BR VCSH OVC030
     FM210800 22004KT 5SM BR VCSH OVC015
     FM211500 26006KT P6SM -SHRA OVC025
     FM212100 29007KT P6SM -SHRA BKN035=

USA.gov is the U.S. government's official web portal to all federal, state and local government web resources and services.